sensor_id;sensor_type;location;lat;lon;timestamp;P1;durP1;ratioP1;P2;durP2;ratioP2
6614;SDS011;3343;42.896;23.912;2023-05-10T00:01:10;3.10;;;2.53;;
6614;SDS011;3343;42.896;23.912;2023-05-10T00:03:38;4.87;;;3.10;;
6614;SDS011;3343;42.896;23.912;2023-05-10T00:06:07;3.87;;;2.70;;
6614;SDS011;3343;42.896;23.912;2023-05-10T00:08:34;3.40;;;2.60;;
6614;SDS011;3343;42.896;23.912;2023-05-10T00:11:00;3.83;;;2.97;;
6614;SDS011;3343;42.896;23.912;2023-05-10T00:13:27;3.50;;;2.73;;
6614;SDS011;3343;42.896;23.912;2023-05-10T00:15:54;4.77;;;2.90;;
6614;SDS011;3343;42.896;23.912;2023-05-10T00:18:21;4.47;;;2.90;;
6614;SDS011;3343;42.896;23.912;2023-05-10T00:20:49;4.03;;;3.17;;
6614;SDS011;3343;42.896;23.912;2023-05-10T00:23:16;7.90;;;3.23;;
6614;SDS011;3343;42.896;23.912;2023-05-10T00:25:43;4.07;;;2.50;;
6614;SDS011;3343;42.896;23.912;2023-05-10T00:28:10;4.97;;;2.97;;
6614;SDS011;3343;42.896;23.912;2023-05-10T00:30:37;4.40;;;2.90;;
6614;SDS011;3343;42.896;23.912;2023-05-10T00:33:04;4.53;;;2.80;;
6614;SDS011;3343;42.896;23.912;2023-05-10T00:35:30;4.70;;;3.10;;
6614;SDS011;3343;42.896;23.912;2023-05-10T00:37:59;4.43;;;2.90;;
6614;SDS011;3343;42.896;23.912;2023-05-10T00:40:26;4.70;;;2.87;;
6614;SDS011;3343;42.896;23.912;2023-05-10T00:42:53;4.47;;;2.80;;
6614;SDS011;3343;42.896;23.912;2023-05-10T00:45:21;5.77;;;2.80;;
6614;SDS011;3343;42.896;23.912;2023-05-10T00:47:47;2.83;;;2.53;;
6614;SDS011;3343;42.896;23.912;2023-05-10T00:50:14;5.37;;;2.83;;
6614;SDS011;3343;42.896;23.912;2023-05-10T00:52:41;2.60;;;2.20;;
6614;SDS011;3343;42.896;23.912;2023-05-10T00:55:10;4.83;;;2.90;;
6614;SDS011;3343;42.896;23.912;2023-05-10T00:57:38;3.53;;;2.50;;
6614;SDS011;3343;42.896;23.912;2023-05-10T01:00:05;4.10;;;2.80;;
6614;SDS011;3343;42.896;23.912;2023-05-10T01:02:33;5.07;;;3.17;;
6614;SDS011;3343;42.896;23.912;2023-05-10T01:05:00;3.90;;;2.73;;
6614;SDS011;3343;42.896;23.912;2023-05-10T01:07:28;4.00;;;2.80;;
6614;SDS011;3343;42.896;23.912;2023-05-10T01:09:55;4.33;;;2.90;;
6614;SDS011;3343;42.896;23.912;2023-05-10T01:12:24;3.50;;;2.60;;
6614;SDS011;3343;42.896;23.912;2023-05-10T01:14:52;3.30;;;2.47;;
6614;SDS011;3343;42.896;23.912;2023-05-10T01:17:19;3.83;;;2.40;;
6614;SDS011;3343;42.896;23.912;2023-05-10T01:19:47;3.77;;;2.40;;
6614;SDS011;3343;42.896;23.912;2023-05-10T01:22:26;5.27;;;2.90;;
6614;SDS011;3343;42.896;23.912;2023-05-10T01:25:19;7.20;;;3.03;;
6614;SDS011;3343;42.896;23.912;2023-05-10T01:28:06;3.47;;;2.30;;
6614;SDS011;3343;42.896;23.912;2023-05-10T01:30:45;4.67;;;2.83;;
6614;SDS011;3343;42.896;23.912;2023-05-10T01:33:28;3.10;;;2.20;;
6614;SDS011;3343;42.896;23.912;2023-05-10T01:36:03;3.40;;;2.50;;
6614;SDS011;3343;42.896;23.912;2023-05-10T01:38:37;4.17;;;2.90;;
6614;SDS011;3343;42.896;23.912;2023-05-10T01:41:10;4.20;;;2.90;;
6614;SDS011;3343;42.896;23.912;2023-05-10T01:43:46;4.03;;;2.93;;
6614;SDS011;3343;42.896;23.912;2023-05-10T01:46:22;3.00;;;2.60;;
6614;SDS011;3343;42.896;23.912;2023-05-10T01:48:55;3.83;;;2.67;;
6614;SDS011;3343;42.896;23.912;2023-05-10T01:51:26;5.23;;;3.50;;
6614;SDS011;3343;42.896;23.912;2023-05-10T01:53:59;5.20;;;3.27;;
6614;SDS011;3343;42.896;23.912;2023-05-10T01:56:28;6.03;;;3.23;;
6614;SDS011;3343;42.896;23.912;2023-05-10T01:58:57;4.13;;;3.03;;
6614;SDS011;3343;42.896;23.912;2023-05-10T02:01:26;2.83;;;2.30;;
6614;SDS011;3343;42.896;23.912;2023-05-10T02:03:55;3.23;;;2.30;;
6614;SDS011;3343;42.896;23.912;2023-05-10T02:06:24;3.83;;;2.17;;
6614;SDS011;3343;42.896;23.912;2023-05-10T02:08:53;3.33;;;2.40;;
6614;SDS011;3343;42.896;23.912;2023-05-10T02:11:21;4.20;;;2.73;;
6614;SDS011;3343;42.896;23.912;2023-05-10T02:13:49;4.00;;;2.70;;
6614;SDS011;3343;42.896;23.912;2023-05-10T02:16:17;4.47;;;2.83;;
6614;SDS011;3343;42.896;23.912;2023-05-10T02:18:49;5.13;;;2.80;;
6614;SDS011;3343;42.896;23.912;2023-05-10T02:21:20;4.20;;;3.00;;
6614;SDS011;3343;42.896;23.912;2023-05-10T02:23:48;6.27;;;3.10;;
6614;SDS011;3343;42.896;23.912;2023-05-10T02:26:17;3.83;;;3.20;;
6614;SDS011;3343;42.896;23.912;2023-05-10T02:28:45;4.63;;;3.00;;
6614;SDS011;3343;42.896;23.912;2023-05-10T02:31:13;5.93;;;3.43;;
6614;SDS011;3343;42.896;23.912;2023-05-10T02:33:41;6.37;;;4.03;;
6614;SDS011;3343;42.896;23.912;2023-05-10T02:36:11;5.33;;;3.57;;
6614;SDS011;3343;42.896;23.912;2023-05-10T02:38:41;5.13;;;3.40;;
6614;SDS011;3343;42.896;23.912;2023-05-10T02:41:09;6.63;;;4.07;;
6614;SDS011;3343;42.896;23.912;2023-05-10T02:43:37;7.43;;;3.40;;
6614;SDS011;3343;42.896;23.912;2023-05-10T02:46:06;7.97;;;4.30;;
6614;SDS011;3343;42.896;23.912;2023-05-10T02:48:32;5.77;;;3.70;;
6614;SDS011;3343;42.896;23.912;2023-05-10T02:51:04;4.70;;;3.23;;
6614;SDS011;3343;42.896;23.912;2023-05-10T02:53:35;4.63;;;3.30;;
6614;SDS011;3343;42.896;23.912;2023-05-10T02:56:11;5.53;;;4.03;;
6614;SDS011;3343;42.896;23.912;2023-05-10T02:58:42;7.70;;;3.53;;
6614;SDS011;3343;42.896;23.912;2023-05-10T03:01:09;4.50;;;3.57;;
6614;SDS011;3343;42.896;23.912;2023-05-10T03:03:36;5.90;;;3.73;;
6614;SDS011;3343;42.896;23.912;2023-05-10T03:06:03;7.43;;;4.30;;
6614;SDS011;3343;42.896;23.912;2023-05-10T03:08:30;18.47;;;9.20;;
6614;SDS011;3343;42.896;23.912;2023-05-10T03:11:01;10.83;;;5.97;;
6614;SDS011;3343;42.896;23.912;2023-05-10T03:13:44;8.07;;;3.87;;
6614;SDS011;3343;42.896;23.912;2023-05-10T03:16:21;6.57;;;3.87;;
6614;SDS011;3343;42.896;23.912;2023-05-10T03:18:54;5.73;;;3.73;;
6614;SDS011;3343;42.896;23.912;2023-05-10T03:21:28;10.53;;;5.37;;
6614;SDS011;3343;42.896;23.912;2023-05-10T03:23:58;6.23;;;3.83;;
6614;SDS011;3343;42.896;23.912;2023-05-10T03:26:27;5.97;;;3.53;;
6614;SDS011;3343;42.896;23.912;2023-05-10T03:28:55;4.57;;;3.17;;
6614;SDS011;3343;42.896;23.912;2023-05-10T03:31:24;5.73;;;3.73;;
6614;SDS011;3343;42.896;23.912;2023-05-10T03:33:51;8.67;;;3.93;;
6614;SDS011;3343;42.896;23.912;2023-05-10T03:36:19;7.43;;;4.23;;
6614;SDS011;3343;42.896;23.912;2023-05-10T03:38:46;6.30;;;3.63;;
6614;SDS011;3343;42.896;23.912;2023-05-10T03:41:13;7.33;;;3.87;;
6614;SDS011;3343;42.896;23.912;2023-05-10T03:43:41;5.77;;;3.87;;
6614;SDS011;3343;42.896;23.912;2023-05-10T03:46:08;6.50;;;3.87;;
6614;SDS011;3343;42.896;23.912;2023-05-10T03:48:35;7.10;;;4.27;;
6614;SDS011;3343;42.896;23.912;2023-05-10T03:51:02;4.80;;;3.30;;
6614;SDS011;3343;42.896;23.912;2023-05-10T03:53:29;5.30;;;3.43;;
6614;SDS011;3343;42.896;23.912;2023-05-10T03:55:56;3.17;;;2.07;;
6614;SDS011;3343;42.896;23.912;2023-05-10T03:58:22;2.53;;;2.20;;
6614;SDS011;3343;42.896;23.912;2023-05-10T04:00:51;5.87;;;1.97;;
6614;SDS011;3343;42.896;23.912;2023-05-10T04:03:18;2.33;;;1.70;;
6614;SDS011;3343;42.896;23.912;2023-05-10T04:05:45;2.17;;;1.73;;
6614;SDS011;3343;42.896;23.912;2023-05-10T04:08:12;5.67;;;1.70;;
6614;SDS011;3343;42.896;23.912;2023-05-10T04:10:40;2.20;;;1.90;;
6614;SDS011;3343;42.896;23.912;2023-05-10T04:13:06;1.73;;;1.40;;
6614;SDS011;3343;42.896;23.912;2023-05-10T04:15:33;2.17;;;1.63;;
6614;SDS011;3343;42.896;23.912;2023-05-10T04:18:02;3.33;;;1.97;;
6614;SDS011;3343;42.896;23.912;2023-05-10T04:20:29;2.50;;;1.93;;
6614;SDS011;3343;42.896;23.912;2023-05-10T04:22:58;4.40;;;1.97;;
6614;SDS011;3343;42.896;23.912;2023-05-10T04:25:25;4.83;;;1.83;;
6614;SDS011;3343;42.896;23.912;2023-05-10T04:27:52;1.93;;;1.53;;
6614;SDS011;3343;42.896;23.912;2023-05-10T04:30:19;3.33;;;1.83;;
6614;SDS011;3343;42.896;23.912;2023-05-10T04:32:46;2.00;;;1.60;;
6614;SDS011;3343;42.896;23.912;2023-05-10T04:35:14;2.27;;;1.63;;
6614;SDS011;3343;42.896;23.912;2023-05-10T04:37:41;2.20;;;1.73;;
6614;SDS011;3343;42.896;23.912;2023-05-10T04:40:09;2.07;;;1.80;;
6614;SDS011;3343;42.896;23.912;2023-05-10T04:42:36;2.73;;;1.80;;
6614;SDS011;3343;42.896;23.912;2023-05-10T04:45:03;3.00;;;1.90;;
6614;SDS011;3343;42.896;23.912;2023-05-10T04:47:31;2.87;;;2.10;;
6614;SDS011;3343;42.896;23.912;2023-05-10T04:49:57;2.87;;;1.90;;
6614;SDS011;3343;42.896;23.912;2023-05-10T04:52:26;3.37;;;2.57;;
6614;SDS011;3343;42.896;23.912;2023-05-10T04:54:52;2.67;;;1.80;;
6614;SDS011;3343;42.896;23.912;2023-05-10T04:57:19;2.83;;;2.00;;
6614;SDS011;3343;42.896;23.912;2023-05-10T04:59:47;4.23;;;2.47;;
6614;SDS011;3343;42.896;23.912;2023-05-10T05:02:14;4.07;;;2.43;;
6614;SDS011;3343;42.896;23.912;2023-05-10T05:04:41;1.60;;;1.50;;
6614;SDS011;3343;42.896;23.912;2023-05-10T05:07:08;2.50;;;2.00;;
6614;SDS011;3343;42.896;23.912;2023-05-10T05:09:36;2.43;;;2.03;;
6614;SDS011;3343;42.896;23.912;2023-05-10T05:12:03;4.80;;;2.00;;
6614;SDS011;3343;42.896;23.912;2023-05-10T05:14:30;2.17;;;1.83;;
6614;SDS011;3343;42.896;23.912;2023-05-10T05:16:57;2.77;;;2.33;;
6614;SDS011;3343;42.896;23.912;2023-05-10T05:19:24;2.43;;;2.07;;
6614;SDS011;3343;42.896;23.912;2023-05-10T05:21:51;3.00;;;2.30;;
6614;SDS011;3343;42.896;23.912;2023-05-10T05:24:18;2.87;;;2.47;;
6614;SDS011;3343;42.896;23.912;2023-05-10T05:26:46;3.57;;;2.53;;
6614;SDS011;3343;42.896;23.912;2023-05-10T05:29:13;2.37;;;2.00;;
6614;SDS011;3343;42.896;23.912;2023-05-10T05:31:40;3.23;;;2.30;;
6614;SDS011;3343;42.896;23.912;2023-05-10T05:34:07;7.23;;;3.23;;
6614;SDS011;3343;42.896;23.912;2023-05-10T05:36:35;7.57;;;4.10;;
6614;SDS011;3343;42.896;23.912;2023-05-10T05:39:03;5.73;;;3.97;;
6614;SDS011;3343;42.896;23.912;2023-05-10T05:41:30;7.50;;;4.27;;
6614;SDS011;3343;42.896;23.912;2023-05-10T05:43:58;9.03;;;4.37;;
6614;SDS011;3343;42.896;23.912;2023-05-10T05:46:25;8.13;;;4.63;;
6614;SDS011;3343;42.896;23.912;2023-05-10T05:48:52;8.67;;;5.30;;
6614;SDS011;3343;42.896;23.912;2023-05-10T05:51:19;9.47;;;5.10;;
6614;SDS011;3343;42.896;23.912;2023-05-10T05:53:45;7.93;;;5.00;;
6614;SDS011;3343;42.896;23.912;2023-05-10T05:56:12;7.13;;;4.27;;
6614;SDS011;3343;42.896;23.912;2023-05-10T05:58:39;9.00;;;5.27;;
6614;SDS011;3343;42.896;23.912;2023-05-10T06:01:08;10.10;;;5.87;;
6614;SDS011;3343;42.896;23.912;2023-05-10T06:03:34;9.60;;;4.67;;
6614;SDS011;3343;42.896;23.912;2023-05-10T06:06:01;10.83;;;6.20;;
6614;SDS011;3343;42.896;23.912;2023-05-10T06:08:28;9.17;;;5.40;;
6614;SDS011;3343;42.896;23.912;2023-05-10T06:10:55;9.10;;;5.83;;
6614;SDS011;3343;42.896;23.912;2023-05-10T06:13:22;8.00;;;4.50;;
6614;SDS011;3343;42.896;23.912;2023-05-10T06:15:49;4.30;;;3.00;;
6614;SDS011;3343;42.896;23.912;2023-05-10T06:18:17;9.20;;;3.80;;
6614;SDS011;3343;42.896;23.912;2023-05-10T06:20:44;5.50;;;3.47;;
6614;SDS011;3343;42.896;23.912;2023-05-10T06:23:11;6.43;;;3.20;;
6614;SDS011;3343;42.896;23.912;2023-05-10T06:25:37;4.47;;;2.90;;
6614;SDS011;3343;42.896;23.912;2023-05-10T06:28:05;5.27;;;2.60;;
6614;SDS011;3343;42.896;23.912;2023-05-10T06:30:32;4.50;;;1.93;;
6614;SDS011;3343;42.896;23.912;2023-05-10T06:32:59;5.40;;;2.30;;
6614;SDS011;3343;42.896;23.912;2023-05-10T06:35:27;3.40;;;2.40;;
6614;SDS011;3343;42.896;23.912;2023-05-10T06:37:54;2.60;;;1.97;;
6614;SDS011;3343;42.896;23.912;2023-05-10T06:40:21;2.20;;;2.00;;
6614;SDS011;3343;42.896;23.912;2023-05-10T06:42:48;1.97;;;1.77;;
6614;SDS011;3343;42.896;23.912;2023-05-10T06:45:15;3.83;;;2.40;;
6614;SDS011;3343;42.896;23.912;2023-05-10T06:47:42;5.90;;;2.27;;
6614;SDS011;3343;42.896;23.912;2023-05-10T06:50:09;3.60;;;2.30;;
6614;SDS011;3343;42.896;23.912;2023-05-10T06:52:38;3.47;;;2.20;;
6614;SDS011;3343;42.896;23.912;2023-05-10T06:55:06;4.37;;;2.13;;
6614;SDS011;3343;42.896;23.912;2023-05-10T06:57:33;2.40;;;1.90;;
6614;SDS011;3343;42.896;23.912;2023-05-10T07:00:00;3.00;;;2.00;;
6614;SDS011;3343;42.896;23.912;2023-05-10T07:02:29;2.30;;;1.87;;
6614;SDS011;3343;42.896;23.912;2023-05-10T07:04:56;3.57;;;2.27;;
6614;SDS011;3343;42.896;23.912;2023-05-10T07:07:23;1.97;;;1.70;;
6614;SDS011;3343;42.896;23.912;2023-05-10T07:09:52;2.60;;;1.90;;
6614;SDS011;3343;42.896;23.912;2023-05-10T07:12:19;1.90;;;1.70;;
6614;SDS011;3343;42.896;23.912;2023-05-10T07:14:45;4.10;;;1.87;;
6614;SDS011;3343;42.896;23.912;2023-05-10T07:17:12;2.53;;;2.10;;
6614;SDS011;3343;42.896;23.912;2023-05-10T07:19:39;2.93;;;1.90;;
6614;SDS011;3343;42.896;23.912;2023-05-10T07:22:06;6.10;;;2.07;;
6614;SDS011;3343;42.896;23.912;2023-05-10T07:24:33;2.80;;;1.90;;
6614;SDS011;3343;42.896;23.912;2023-05-10T07:27:01;2.40;;;2.00;;
6614;SDS011;3343;42.896;23.912;2023-05-10T07:29:28;2.70;;;1.97;;
6614;SDS011;3343;42.896;23.912;2023-05-10T07:31:55;2.73;;;1.90;;
6614;SDS011;3343;42.896;23.912;2023-05-10T07:34:21;2.57;;;2.13;;
6614;SDS011;3343;42.896;23.912;2023-05-10T07:36:48;8.03;;;2.60;;
6614;SDS011;3343;42.896;23.912;2023-05-10T07:39:15;4.47;;;2.90;;
6614;SDS011;3343;42.896;23.912;2023-05-10T07:41:42;2.10;;;1.90;;
6614;SDS011;3343;42.896;23.912;2023-05-10T07:44:10;3.10;;;2.37;;
6614;SDS011;3343;42.896;23.912;2023-05-10T07:46:38;2.33;;;1.97;;
6614;SDS011;3343;42.896;23.912;2023-05-10T07:49:05;2.37;;;1.90;;
6614;SDS011;3343;42.896;23.912;2023-05-10T07:51:31;2.70;;;2.10;;
6614;SDS011;3343;42.896;23.912;2023-05-10T07:53:59;2.93;;;2.10;;
6614;SDS011;3343;42.896;23.912;2023-05-10T07:56:26;4.60;;;1.67;;
6614;SDS011;3343;42.896;23.912;2023-05-10T07:58:55;1.97;;;1.73;;
6614;SDS011;3343;42.896;23.912;2023-05-10T08:01:24;2.00;;;1.80;;
6614;SDS011;3343;42.896;23.912;2023-05-10T08:03:51;2.53;;;1.90;;
6614;SDS011;3343;42.896;23.912;2023-05-10T08:06:18;2.30;;;1.87;;
6614;SDS011;3343;42.896;23.912;2023-05-10T08:08:46;2.37;;;1.93;;
6614;SDS011;3343;42.896;23.912;2023-05-10T08:11:15;3.57;;;2.03;;
6614;SDS011;3343;42.896;23.912;2023-05-10T08:13:42;4.90;;;2.10;;
6614;SDS011;3343;42.896;23.912;2023-05-10T08:16:09;2.50;;;1.97;;
6614;SDS011;3343;42.896;23.912;2023-05-10T08:18:38;3.00;;;1.80;;
6614;SDS011;3343;42.896;23.912;2023-05-10T08:21:05;2.37;;;1.80;;
6614;SDS011;3343;42.896;23.912;2023-05-10T08:23:32;1.93;;;1.73;;
6614;SDS011;3343;42.896;23.912;2023-05-10T08:25:59;3.03;;;1.90;;
6614;SDS011;3343;42.896;23.912;2023-05-10T08:28:26;1.57;;;1.47;;
6614;SDS011;3343;42.896;23.912;2023-05-10T08:30:53;3.70;;;1.67;;
6614;SDS011;3343;42.896;23.912;2023-05-10T08:33:20;3.00;;;1.90;;
6614;SDS011;3343;42.896;23.912;2023-05-10T08:35:49;2.17;;;1.67;;
6614;SDS011;3343;42.896;23.912;2023-05-10T08:38:17;4.43;;;1.90;;
6614;SDS011;3343;42.896;23.912;2023-05-10T08:40:44;3.43;;;1.97;;
6614;SDS011;3343;42.896;23.912;2023-05-10T08:43:12;2.37;;;1.83;;
6614;SDS011;3343;42.896;23.912;2023-05-10T08:45:41;2.40;;;1.73;;
6614;SDS011;3343;42.896;23.912;2023-05-10T08:48:10;2.03;;;1.70;;
6614;SDS011;3343;42.896;23.912;2023-05-10T08:50:38;4.13;;;1.90;;
6614;SDS011;3343;42.896;23.912;2023-05-10T08:53:09;3.37;;;2.30;;
6614;SDS011;3343;42.896;23.912;2023-05-10T08:55:37;1.90;;;1.60;;
6614;SDS011;3343;42.896;23.912;2023-05-10T08:58:05;2.20;;;1.83;;
6614;SDS011;3343;42.896;23.912;2023-05-10T09:00:33;2.40;;;1.97;;
6614;SDS011;3343;42.896;23.912;2023-05-10T09:03:00;2.00;;;1.80;;
6614;SDS011;3343;42.896;23.912;2023-05-10T09:05:29;2.80;;;1.67;;
6614;SDS011;3343;42.896;23.912;2023-05-10T09:07:56;1.73;;;1.60;;
6614;SDS011;3343;42.896;23.912;2023-05-10T09:10:25;2.07;;;1.60;;
6614;SDS011;3343;42.896;23.912;2023-05-10T09:12:52;2.67;;;1.67;;
6614;SDS011;3343;42.896;23.912;2023-05-10T09:15:22;1.90;;;1.40;;
6614;SDS011;3343;42.896;23.912;2023-05-10T09:17:49;1.87;;;1.67;;
6614;SDS011;3343;42.896;23.912;2023-05-10T09:20:16;2.63;;;1.80;;
6614;SDS011;3343;42.896;23.912;2023-05-10T09:22:43;3.33;;;1.93;;
6614;SDS011;3343;42.896;23.912;2023-05-10T09:25:11;5.47;;;2.70;;
6614;SDS011;3343;42.896;23.912;2023-05-10T09:27:41;4.10;;;1.63;;
6614;SDS011;3343;42.896;23.912;2023-05-10T09:30:14;2.07;;;1.70;;
6614;SDS011;3343;42.896;23.912;2023-05-10T09:32:43;4.33;;;2.23;;
6614;SDS011;3343;42.896;23.912;2023-05-10T09:35:11;4.40;;;1.60;;
6614;SDS011;3343;42.896;23.912;2023-05-10T09:37:41;2.83;;;1.70;;
6614;SDS011;3343;42.896;23.912;2023-05-10T09:40:11;3.03;;;1.43;;
6614;SDS011;3343;42.896;23.912;2023-05-10T09:42:41;1.37;;;1.27;;
6614;SDS011;3343;42.896;23.912;2023-05-10T09:45:16;3.00;;;1.60;;
6614;SDS011;3343;42.896;23.912;2023-05-10T09:47:43;1.93;;;1.53;;
6614;SDS011;3343;42.896;23.912;2023-05-10T09:50:11;2.13;;;1.47;;
6614;SDS011;3343;42.896;23.912;2023-05-10T09:52:48;1.40;;;1.30;;
6614;SDS011;3343;42.896;23.912;2023-05-10T09:55:16;3.23;;;1.67;;
6614;SDS011;3343;42.896;23.912;2023-05-10T09:57:46;4.47;;;1.70;;
6614;SDS011;3343;42.896;23.912;2023-05-10T10:00:17;2.47;;;1.60;;
6614;SDS011;3343;42.896;23.912;2023-05-10T10:02:45;1.60;;;1.50;;
6614;SDS011;3343;42.896;23.912;2023-05-10T10:05:14;2.00;;;1.50;;
6614;SDS011;3343;42.896;23.912;2023-05-10T10:07:41;2.77;;;1.50;;
6614;SDS011;3343;42.896;23.912;2023-05-10T10:10:08;1.67;;;1.33;;
6614;SDS011;3343;42.896;23.912;2023-05-10T10:12:38;1.87;;;1.53;;
6614;SDS011;3343;42.896;23.912;2023-05-10T10:15:08;2.60;;;1.40;;
6614;SDS011;3343;42.896;23.912;2023-05-10T10:17:36;2.20;;;1.37;;
6614;SDS011;3343;42.896;23.912;2023-05-10T10:20:05;2.00;;;1.53;;
6614;SDS011;3343;42.896;23.912;2023-05-10T10:22:32;1.93;;;1.37;;
6614;SDS011;3343;42.896;23.912;2023-05-10T10:24:59;1.50;;;1.30;;
6614;SDS011;3343;42.896;23.912;2023-05-10T10:27:28;2.23;;;1.80;;
6614;SDS011;3343;42.896;23.912;2023-05-10T10:30:12;4.77;;;1.37;;
6614;SDS011;3343;42.896;23.912;2023-05-10T10:32:54;1.70;;;1.47;;
6614;SDS011;3343;42.896;23.912;2023-05-10T10:35:33;2.20;;;1.63;;
6614;SDS011;3343;42.896;23.912;2023-05-10T10:38:00;1.93;;;0.90;;
6614;SDS011;3343;42.896;23.912;2023-05-10T10:40:28;1.77;;;1.40;;
6614;SDS011;3343;42.896;23.912;2023-05-10T10:42:56;1.80;;;1.50;;
6614;SDS011;3343;42.896;23.912;2023-05-10T10:45:25;2.23;;;1.53;;
6614;SDS011;3343;42.896;23.912;2023-05-10T10:50:51;2.33;;;1.40;;
6614;SDS011;3343;42.896;23.912;2023-05-10T10:53:23;1.70;;;1.60;;
6614;SDS011;3343;42.896;23.912;2023-05-10T10:55:53;1.40;;;1.30;;
6614;SDS011;3343;42.896;23.912;2023-05-10T10:58:32;1.20;;;1.10;;
6614;SDS011;3343;42.896;23.912;2023-05-10T11:01:10;5.47;;;1.77;;
6614;SDS011;3343;42.896;23.912;2023-05-10T11:03:38;3.03;;;2.00;;
6614;SDS011;3343;42.896;23.912;2023-05-10T11:06:05;2.23;;;1.63;;
6614;SDS011;3343;42.896;23.912;2023-05-10T11:08:34;4.77;;;2.13;;
6614;SDS011;3343;42.896;23.912;2023-05-10T11:11:08;2.50;;;1.50;;
6614;SDS011;3343;42.896;23.912;2023-05-10T11:13:38;3.27;;;1.80;;
6614;SDS011;3343;42.896;23.912;2023-05-10T11:16:14;1.97;;;1.30;;
6614;SDS011;3343;42.896;23.912;2023-05-10T11:21:44;1.33;;;1.20;;
6614;SDS011;3343;42.896;23.912;2023-05-10T11:24:13;2.97;;;1.80;;
6614;SDS011;3343;42.896;23.912;2023-05-10T11:26:40;4.67;;;1.60;;
6614;SDS011;3343;42.896;23.912;2023-05-10T11:29:08;2.10;;;1.90;;
6614;SDS011;3343;42.896;23.912;2023-05-10T11:31:38;1.83;;;1.50;;
6614;SDS011;3343;42.896;23.912;2023-05-10T11:34:10;3.07;;;1.80;;
6614;SDS011;3343;42.896;23.912;2023-05-10T11:36:38;4.70;;;1.67;;
6614;SDS011;3343;42.896;23.912;2023-05-10T11:39:05;1.87;;;1.57;;
6614;SDS011;3343;42.896;23.912;2023-05-10T11:41:32;2.47;;;1.50;;
6614;SDS011;3343;42.896;23.912;2023-05-10T11:43:59;20.67;;;6.73;;
6614;SDS011;3343;42.896;23.912;2023-05-10T11:46:27;1.53;;;1.37;;
6614;SDS011;3343;42.896;23.912;2023-05-10T11:48:57;1.63;;;1.50;;
6614;SDS011;3343;42.896;23.912;2023-05-10T11:51:26;3.30;;;1.90;;
6614;SDS011;3343;42.896;23.912;2023-05-10T11:53:55;1.60;;;1.43;;
6614;SDS011;3343;42.896;23.912;2023-05-10T11:56:22;3.60;;;1.50;;
6614;SDS011;3343;42.896;23.912;2023-05-10T11:58:54;4.00;;;2.10;;
6614;SDS011;3343;42.896;23.912;2023-05-10T12:15:08;2.57;;;1.90;;
6614;SDS011;3343;42.896;23.912;2023-05-10T12:17:38;2.67;;;1.60;;
6614;SDS011;3343;42.896;23.912;2023-05-10T12:20:15;2.00;;;1.70;;
6614;SDS011;3343;42.896;23.912;2023-05-10T12:22:46;1.93;;;1.40;;
6614;SDS011;3343;42.896;23.912;2023-05-10T12:25:15;1.80;;;1.50;;
6614;SDS011;3343;42.896;23.912;2023-05-10T12:27:47;1.70;;;1.50;;
6614;SDS011;3343;42.896;23.912;2023-05-10T12:30:20;2.10;;;1.67;;
6614;SDS011;3343;42.896;23.912;2023-05-10T12:32:47;1.80;;;1.50;;
6614;SDS011;3343;42.896;23.912;2023-05-10T12:35:15;1.77;;;1.43;;
6614;SDS011;3343;42.896;23.912;2023-05-10T12:37:42;1.60;;;1.50;;
6614;SDS011;3343;42.896;23.912;2023-05-10T12:40:09;2.00;;;1.70;;
6614;SDS011;3343;42.896;23.912;2023-05-10T12:42:38;1.83;;;1.63;;
6614;SDS011;3343;42.896;23.912;2023-05-10T12:45:06;1.50;;;1.40;;
6614;SDS011;3343;42.896;23.912;2023-05-10T12:47:37;2.13;;;1.53;;
6614;SDS011;3343;42.896;23.912;2023-05-10T12:50:04;2.67;;;1.63;;
6614;SDS011;3343;42.896;23.912;2023-05-10T12:52:32;1.57;;;1.47;;
6614;SDS011;3343;42.896;23.912;2023-05-10T12:54:59;1.80;;;1.70;;
6614;SDS011;3343;42.896;23.912;2023-05-10T12:57:26;2.00;;;1.53;;
6614;SDS011;3343;42.896;23.912;2023-05-10T12:59:54;3.97;;;2.13;;
6614;SDS011;3343;42.896;23.912;2023-05-10T13:02:21;1.60;;;1.50;;
6614;SDS011;3343;42.896;23.912;2023-05-10T13:04:50;2.10;;;1.63;;
6614;SDS011;3343;42.896;23.912;2023-05-10T13:07:17;5.40;;;2.50;;
6614;SDS011;3343;42.896;23.912;2023-05-10T13:09:44;1.70;;;1.43;;
6614;SDS011;3343;42.896;23.912;2023-05-10T13:12:11;2.00;;;1.80;;
6614;SDS011;3343;42.896;23.912;2023-05-10T13:14:37;3.43;;;1.73;;
6614;SDS011;3343;42.896;23.912;2023-05-10T13:17:05;1.50;;;1.40;;
6614;SDS011;3343;42.896;23.912;2023-05-10T13:19:32;10.50;;;3.50;;
6614;SDS011;3343;42.896;23.912;2023-05-10T13:22:01;4.47;;;2.07;;
6614;SDS011;3343;42.896;23.912;2023-05-10T13:24:27;2.60;;;1.90;;
6614;SDS011;3343;42.896;23.912;2023-05-10T13:26:54;1.60;;;1.50;;
6614;SDS011;3343;42.896;23.912;2023-05-10T13:29:21;1.77;;;1.63;;
6614;SDS011;3343;42.896;23.912;2023-05-10T13:31:48;1.73;;;1.57;;
6614;SDS011;3343;42.896;23.912;2023-05-10T13:34:15;2.30;;;1.83;;
6614;SDS011;3343;42.896;23.912;2023-05-10T13:36:45;2.60;;;1.70;;
6614;SDS011;3343;42.896;23.912;2023-05-10T13:39:13;2.23;;;2.00;;
6614;SDS011;3343;42.896;23.912;2023-05-10T13:41:40;2.00;;;1.67;;
6614;SDS011;3343;42.896;23.912;2023-05-10T13:44:07;3.33;;;1.80;;
6614;SDS011;3343;42.896;23.912;2023-05-10T13:46:34;6.90;;;1.97;;
6614;SDS011;3343;42.896;23.912;2023-05-10T13:49:01;2.23;;;1.80;;
6614;SDS011;3343;42.896;23.912;2023-05-10T13:51:28;2.07;;;1.60;;
6614;SDS011;3343;42.896;23.912;2023-05-10T13:53:56;2.23;;;1.93;;
6614;SDS011;3343;42.896;23.912;2023-05-10T13:56:25;3.00;;;2.07;;
6614;SDS011;3343;42.896;23.912;2023-05-10T13:58:51;1.93;;;1.73;;
6614;SDS011;3343;42.896;23.912;2023-05-10T14:01:18;1.70;;;1.60;;
6614;SDS011;3343;42.896;23.912;2023-05-10T14:03:45;2.30;;;1.90;;
6614;SDS011;3343;42.896;23.912;2023-05-10T14:06:12;5.07;;;2.57;;
6614;SDS011;3343;42.896;23.912;2023-05-10T14:08:39;6.83;;;2.33;;
6614;SDS011;3343;42.896;23.912;2023-05-10T14:11:06;3.03;;;2.53;;
6614;SDS011;3343;42.896;23.912;2023-05-10T14:13:34;3.20;;;2.13;;
6614;SDS011;3343;42.896;23.912;2023-05-10T14:16:01;3.87;;;2.70;;
6614;SDS011;3343;42.896;23.912;2023-05-10T14:18:28;3.17;;;2.57;;
6614;SDS011;3343;42.896;23.912;2023-05-10T14:20:55;3.30;;;2.10;;
6614;SDS011;3343;42.896;23.912;2023-05-10T14:23:22;2.43;;;1.90;;
6614;SDS011;3343;42.896;23.912;2023-05-10T14:25:50;4.80;;;2.27;;
6614;SDS011;3343;42.896;23.912;2023-05-10T14:28:18;3.30;;;2.00;;
6614;SDS011;3343;42.896;23.912;2023-05-10T14:30:48;2.00;;;1.60;;
6614;SDS011;3343;42.896;23.912;2023-05-10T14:33:16;3.53;;;2.10;;
6614;SDS011;3343;42.896;23.912;2023-05-10T14:35:43;1.87;;;1.77;;
6614;SDS011;3343;42.896;23.912;2023-05-10T14:38:10;4.67;;;1.93;;
6614;SDS011;3343;42.896;23.912;2023-05-10T14:40:37;2.33;;;2.03;;
6614;SDS011;3343;42.896;23.912;2023-05-10T14:43:04;4.50;;;2.27;;
6614;SDS011;3343;42.896;23.912;2023-05-10T14:45:31;2.80;;;2.47;;
6614;SDS011;3343;42.896;23.912;2023-05-10T14:47:59;2.37;;;2.00;;
6614;SDS011;3343;42.896;23.912;2023-05-10T14:50:29;2.63;;;1.97;;
6614;SDS011;3343;42.896;23.912;2023-05-10T14:52:56;2.30;;;2.10;;
6614;SDS011;3343;42.896;23.912;2023-05-10T14:55:23;2.67;;;1.57;;
6614;SDS011;3343;42.896;23.912;2023-05-10T14:57:50;3.93;;;2.30;;
6614;SDS011;3343;42.896;23.912;2023-05-10T15:00:18;2.87;;;2.37;;
6614;SDS011;3343;42.896;23.912;2023-05-10T15:02:45;6.27;;;2.57;;
6614;SDS011;3343;42.896;23.912;2023-05-10T15:05:14;2.10;;;1.90;;
6614;SDS011;3343;42.896;23.912;2023-05-10T15:07:41;2.70;;;2.03;;
6614;SDS011;3343;42.896;23.912;2023-05-10T15:10:09;3.07;;;2.20;;
6614;SDS011;3343;42.896;23.912;2023-05-10T15:12:36;7.80;;;3.20;;
6614;SDS011;3343;42.896;23.912;2023-05-10T15:15:04;2.53;;;1.87;;
6614;SDS011;3343;42.896;23.912;2023-05-10T15:17:32;1.60;;;1.43;;
6614;SDS011;3343;42.896;23.912;2023-05-10T15:19:59;2.10;;;1.90;;
6614;SDS011;3343;42.896;23.912;2023-05-10T15:22:28;2.87;;;1.90;;
6614;SDS011;3343;42.896;23.912;2023-05-10T15:24:56;4.33;;;2.30;;
6614;SDS011;3343;42.896;23.912;2023-05-10T15:27:23;3.33;;;2.10;;